sensor_id;sensor_type;location;lat;lon;timestamp;P1;durP1;ratioP1;P2;durP2;ratioP2
18042;SDS011;9146;48.074;11.968;2023-04-23T00:02:13;2.70;;;2.07;;
18042;SDS011;9146;48.074;11.968;2023-04-23T00:04:44;2.47;;;2.27;;
18042;SDS011;9146;48.074;11.968;2023-04-23T00:07:15;2.53;;;2.33;;
18042;SDS011;9146;48.074;11.968;2023-04-23T00:09:44;2.30;;;2.13;;
18042;SDS011;9146;48.074;11.968;2023-04-23T00:12:12;1.90;;;1.80;;
18042;SDS011;9146;48.074;11.968;2023-04-23T00:14:39;1.83;;;1.73;;
18042;SDS011;9146;48.074;11.968;2023-04-23T00:17:06;2.20;;;1.97;;
18042;SDS011;9146;48.074;11.968;2023-04-23T00:19:35;1.90;;;1.80;;
18042;SDS011;9146;48.074;11.968;2023-04-23T00:22:02;1.73;;;1.63;;
18042;SDS011;9146;48.074;11.968;2023-04-23T00:24:30;1.50;;;1.40;;
18042;SDS011;9146;48.074;11.968;2023-04-23T00:27:00;1.90;;;1.80;;
18042;SDS011;9146;48.074;11.968;2023-04-23T00:29:27;1.70;;;1.60;;
18042;SDS011;9146;48.074;11.968;2023-04-23T00:31:53;1.97;;;1.80;;
18042;SDS011;9146;48.074;11.968;2023-04-23T00:34:21;2.40;;;2.20;;
18042;SDS011;9146;48.074;11.968;2023-04-23T00:36:49;6.73;;;2.40;;
18042;SDS011;9146;48.074;11.968;2023-04-23T00:39:16;2.43;;;2.10;;
18042;SDS011;9146;48.074;11.968;2023-04-23T00:41:43;3.30;;;1.83;;
18042;SDS011;9146;48.074;11.968;2023-04-23T00:44:10;2.27;;;2.17;;
18042;SDS011;9146;48.074;11.968;2023-04-23T00:46:38;2.10;;;2.00;;
18042;SDS011;9146;48.074;11.968;2023-04-23T00:49:05;2.70;;;2.50;;
18042;SDS011;9146;48.074;11.968;2023-04-23T00:51:32;2.60;;;2.17;;
18042;SDS011;9146;48.074;11.968;2023-04-23T00:54:01;3.50;;;2.47;;
18042;SDS011;9146;48.074;11.968;2023-04-23T00:56:28;2.80;;;2.60;;
18042;SDS011;9146;48.074;11.968;2023-04-23T00:58:54;2.70;;;2.50;;
18042;SDS011;9146;48.074;11.968;2023-04-23T01:01:22;3.13;;;2.93;;
18042;SDS011;9146;48.074;11.968;2023-04-23T01:03:50;2.77;;;2.57;;
18042;SDS011;9146;48.074;11.968;2023-04-23T01:06:20;3.70;;;2.97;;
18042;SDS011;9146;48.074;11.968;2023-04-23T01:08:49;2.77;;;2.57;;
18042;SDS011;9146;48.074;11.968;2023-04-23T01:11:17;4.87;;;3.43;;
18042;SDS011;9146;48.074;11.968;2023-04-23T01:13:44;3.50;;;3.00;;
18042;SDS011;9146;48.074;11.968;2023-04-23T01:16:11;3.53;;;3.23;;
18042;SDS011;9146;48.074;11.968;2023-04-23T01:18:39;3.53;;;3.23;;
18042;SDS011;9146;48.074;11.968;2023-04-23T01:21:06;2.90;;;2.70;;
18042;SDS011;9146;48.074;11.968;2023-04-23T01:23:37;2.77;;;2.57;;
18042;SDS011;9146;48.074;11.968;2023-04-23T01:26:04;2.73;;;2.53;;
18042;SDS011;9146;48.074;11.968;2023-04-23T01:28:31;3.53;;;3.23;;
18042;SDS011;9146;48.074;11.968;2023-04-23T01:31:00;2.90;;;2.70;;
18042;SDS011;9146;48.074;11.968;2023-04-23T01:33:28;2.83;;;2.47;;
18042;SDS011;9146;48.074;11.968;2023-04-23T01:35:56;2.50;;;2.33;;
18042;SDS011;9146;48.074;11.968;2023-04-23T01:38:25;2.77;;;2.57;;
18042;SDS011;9146;48.074;11.968;2023-04-23T01:40:57;2.23;;;2.13;;
18042;SDS011;9146;48.074;11.968;2023-04-23T01:43:24;2.40;;;2.20;;
18042;SDS011;9146;48.074;11.968;2023-04-23T01:45:51;3.40;;;2.47;;
18042;SDS011;9146;48.074;11.968;2023-04-23T01:48:18;3.10;;;2.00;;
18042;SDS011;9146;48.074;11.968;2023-04-23T01:50:45;2.23;;;2.13;;
18042;SDS011;9146;48.074;11.968;2023-04-23T01:53:13;2.50;;;2.30;;
18042;SDS011;9146;48.074;11.968;2023-04-23T01:55:39;2.73;;;2.40;;
18042;SDS011;9146;48.074;11.968;2023-04-23T01:58:09;2.63;;;2.43;;
18042;SDS011;9146;48.074;11.968;2023-04-23T02:00:36;3.73;;;2.43;;
18042;SDS011;9146;48.074;11.968;2023-04-23T02:03:03;2.20;;;2.10;;
18042;SDS011;9146;48.074;11.968;2023-04-23T02:05:30;2.37;;;2.23;;
18042;SDS011;9146;48.074;11.968;2023-04-23T02:08:00;2.50;;;2.30;;
18042;SDS011;9146;48.074;11.968;2023-04-23T02:10:28;2.40;;;2.20;;
18042;SDS011;9146;48.074;11.968;2023-04-23T02:12:56;1.90;;;1.80;;
18042;SDS011;9146;48.074;11.968;2023-04-23T02:15:24;2.30;;;1.97;;
18042;SDS011;9146;48.074;11.968;2023-04-23T02:17:51;2.43;;;2.27;;
18042;SDS011;9146;48.074;11.968;2023-04-23T02:20:18;2.07;;;1.97;;
18042;SDS011;9146;48.074;11.968;2023-04-23T02:22:46;2.70;;;2.50;;
18042;SDS011;9146;48.074;11.968;2023-04-23T02:25:14;2.67;;;2.47;;
18042;SDS011;9146;48.074;11.968;2023-04-23T02:27:42;2.90;;;2.70;;
18042;SDS011;9146;48.074;11.968;2023-04-23T02:30:10;2.57;;;2.40;;
18042;SDS011;9146;48.074;11.968;2023-04-23T02:32:38;2.20;;;2.07;;
18042;SDS011;9146;48.074;11.968;2023-04-23T02:35:07;2.77;;;2.57;;
18042;SDS011;9146;48.074;11.968;2023-04-23T02:37:34;3.37;;;2.83;;
18042;SDS011;9146;48.074;11.968;2023-04-23T02:40:02;3.90;;;3.37;;
18042;SDS011;9146;48.074;11.968;2023-04-23T02:42:30;2.57;;;2.37;;
18042;SDS011;9146;48.074;11.968;2023-04-23T02:44:57;2.23;;;2.13;;
18042;SDS011;9146;48.074;11.968;2023-04-23T02:47:24;4.23;;;2.97;;
18042;SDS011;9146;48.074;11.968;2023-04-23T02:49:52;2.60;;;2.40;;
18042;SDS011;9146;48.074;11.968;2023-04-23T02:52:19;2.97;;;2.63;;
18042;SDS011;9146;48.074;11.968;2023-04-23T02:54:46;3.03;;;2.73;;
18042;SDS011;9146;48.074;11.968;2023-04-23T02:57:13;3.07;;;2.87;;
18042;SDS011;9146;48.074;11.968;2023-04-23T02:59:40;2.70;;;2.50;;
18042;SDS011;9146;48.074;11.968;2023-04-23T03:02:07;2.57;;;2.37;;
18042;SDS011;9146;48.074;11.968;2023-04-23T03:04:35;2.47;;;2.27;;
18042;SDS011;9146;48.074;11.968;2023-04-23T03:07:03;2.50;;;2.33;;
18042;SDS011;9146;48.074;11.968;2023-04-23T03:09:30;2.70;;;2.50;;
18042;SDS011;9146;48.074;11.968;2023-04-23T03:11:57;2.43;;;2.23;;
18042;SDS011;9146;48.074;11.968;2023-04-23T03:14:23;5.10;;;2.53;;
18042;SDS011;9146;48.074;11.968;2023-04-23T03:16:50;3.30;;;3.03;;
18042;SDS011;9146;48.074;11.968;2023-04-23T03:19:17;2.97;;;2.77;;
18042;SDS011;9146;48.074;11.968;2023-04-23T03:21:44;2.97;;;2.67;;
18042;SDS011;9146;48.074;11.968;2023-04-23T03:26:56;3.07;;;2.77;;
18042;SDS011;9146;48.074;11.968;2023-04-23T03:29:24;3.50;;;3.03;;
18042;SDS011;9146;48.074;11.968;2023-04-23T03:31:51;3.67;;;3.13;;
18042;SDS011;9146;48.074;11.968;2023-04-23T03:34:17;3.00;;;2.80;;
18042;SDS011;9146;48.074;11.968;2023-04-23T03:36:44;2.60;;;2.40;;
18042;SDS011;9146;48.074;11.968;2023-04-23T03:39:12;2.20;;;2.00;;
18042;SDS011;9146;48.074;11.968;2023-04-23T03:41:41;2.93;;;2.70;;
18042;SDS011;9146;48.074;11.968;2023-04-23T03:44:08;2.20;;;2.10;;
18042;SDS011;9146;48.074;11.968;2023-04-23T03:46:35;3.13;;;2.83;;
18042;SDS011;9146;48.074;11.968;2023-04-23T03:49:01;3.10;;;2.53;;
18042;SDS011;9146;48.074;11.968;2023-04-23T03:51:28;2.37;;;2.10;;
18042;SDS011;9146;48.074;11.968;2023-04-23T03:53:55;2.63;;;2.43;;
18042;SDS011;9146;48.074;11.968;2023-04-23T03:56:22;2.93;;;2.73;;
18042;SDS011;9146;48.074;11.968;2023-04-23T03:58:51;2.60;;;2.50;;
18042;SDS011;9146;48.074;11.968;2023-04-23T04:01:17;6.03;;;2.73;;
18042;SDS011;9146;48.074;11.968;2023-04-23T04:03:44;2.53;;;2.40;;
18042;SDS011;9146;48.074;11.968;2023-04-23T04:06:11;2.50;;;2.33;;
18042;SDS011;9146;48.074;11.968;2023-04-23T04:08:38;2.80;;;2.60;;
18042;SDS011;9146;48.074;11.968;2023-04-23T04:11:05;3.67;;;3.37;;
18042;SDS011;9146;48.074;11.968;2023-04-23T04:13:32;3.17;;;2.80;;
18042;SDS011;9146;48.074;11.968;2023-04-23T04:16:00;5.60;;;2.90;;
18042;SDS011;9146;48.074;11.968;2023-04-23T04:18:27;3.40;;;3.10;;
18042;SDS011;9146;48.074;11.968;2023-04-23T04:20:54;3.50;;;2.77;;
18042;SDS011;9146;48.074;11.968;2023-04-23T04:23:21;3.33;;;3.13;;
18042;SDS011;9146;48.074;11.968;2023-04-23T04:25:48;2.77;;;2.47;;
18042;SDS011;9146;48.074;11.968;2023-04-23T04:28:15;3.30;;;3.10;;
18042;SDS011;9146;48.074;11.968;2023-04-23T04:30:42;3.27;;;3.07;;
18042;SDS011;9146;48.074;11.968;2023-04-23T04:33:11;3.10;;;2.80;;
18042;SDS011;9146;48.074;11.968;2023-04-23T04:35:39;3.00;;;2.70;;
18042;SDS011;9146;48.074;11.968;2023-04-23T04:38:06;3.40;;;2.60;;
18042;SDS011;9146;48.074;11.968;2023-04-23T04:40:33;3.00;;;2.80;;
18042;SDS011;9146;48.074;11.968;2023-04-23T04:43:00;2.80;;;2.60;;
18042;SDS011;9146;48.074;11.968;2023-04-23T04:45:29;3.33;;;3.03;;
18042;SDS011;9146;48.074;11.968;2023-04-23T04:47:57;2.90;;;2.70;;
18042;SDS011;9146;48.074;11.968;2023-04-23T04:50:25;3.87;;;2.30;;
18042;SDS011;9146;48.074;11.968;2023-04-23T04:52:53;4.43;;;2.23;;
18042;SDS011;9146;48.074;11.968;2023-04-23T04:55:20;2.30;;;2.10;;
18042;SDS011;9146;48.074;11.968;2023-04-23T04:57:46;2.70;;;2.40;;
18042;SDS011;9146;48.074;11.968;2023-04-23T05:00:20;2.50;;;2.30;;
18042;SDS011;9146;48.074;11.968;2023-04-23T05:02:50;2.67;;;2.47;;
18042;SDS011;9146;48.074;11.968;2023-04-23T05:05:18;2.97;;;2.77;;
18042;SDS011;9146;48.074;11.968;2023-04-23T05:07:46;2.63;;;2.43;;
18042;SDS011;9146;48.074;11.968;2023-04-23T05:10:13;3.63;;;3.07;;
18042;SDS011;9146;48.074;11.968;2023-04-23T05:12:40;4.23;;;3.67;;
18042;SDS011;9146;48.074;11.968;2023-04-23T05:15:08;4.13;;;3.73;;
18042;SDS011;9146;48.074;11.968;2023-04-23T05:17:37;5.43;;;4.90;;
18042;SDS011;9146;48.074;11.968;2023-04-23T05:20:05;6.50;;;4.30;;
18042;SDS011;9146;48.074;11.968;2023-04-23T05:22:34;11.20;;;4.50;;
18042;SDS011;9146;48.074;11.968;2023-04-23T05:25:03;5.70;;;5.20;;
18042;SDS011;9146;48.074;11.968;2023-04-23T05:27:31;6.60;;;5.37;;
18042;SDS011;9146;48.074;11.968;2023-04-23T05:29:59;9.63;;;5.73;;
18042;SDS011;9146;48.074;11.968;2023-04-23T05:32:26;6.23;;;5.63;;
18042;SDS011;9146;48.074;11.968;2023-04-23T05:34:53;7.07;;;6.40;;
18042;SDS011;9146;48.074;11.968;2023-04-23T05:37:20;9.93;;;6.37;;
18042;SDS011;9146;48.074;11.968;2023-04-23T05:39:47;12.73;;;7.63;;
18042;SDS011;9146;48.074;11.968;2023-04-23T05:42:15;9.33;;;7.20;;
18042;SDS011;9146;48.074;11.968;2023-04-23T05:44:42;11.60;;;7.70;;
18042;SDS011;9146;48.074;11.968;2023-04-23T05:47:09;8.13;;;7.30;;
18042;SDS011;9146;48.074;11.968;2023-04-23T05:49:38;10.90;;;8.07;;
18042;SDS011;9146;48.074;11.968;2023-04-23T05:52:05;9.00;;;7.90;;
18042;SDS011;9146;48.074;11.968;2023-04-23T05:54:32;9.63;;;8.73;;
18042;SDS011;9146;48.074;11.968;2023-04-23T05:56:59;9.20;;;7.00;;
18042;SDS011;9146;48.074;11.968;2023-04-23T05:59:28;10.53;;;8.70;;
18042;SDS011;9146;48.074;11.968;2023-04-23T06:01:55;9.63;;;7.53;;
18042;SDS011;9146;48.074;11.968;2023-04-23T06:04:22;10.87;;;9.00;;
18042;SDS011;9146;48.074;11.968;2023-04-23T06:06:49;9.33;;;8.27;;
18042;SDS011;9146;48.074;11.968;2023-04-23T06:09:15;8.57;;;7.67;;
18042;SDS011;9146;48.074;11.968;2023-04-23T06:11:42;9.17;;;8.30;;
18042;SDS011;9146;48.074;11.968;2023-04-23T06:14:09;10.33;;;8.80;;
18042;SDS011;9146;48.074;11.968;2023-04-23T06:16:37;13.67;;;8.80;;
18042;SDS011;9146;48.074;11.968;2023-04-23T06:19:04;9.10;;;8.00;;
18042;SDS011;9146;48.074;11.968;2023-04-23T06:21:31;9.63;;;8.13;;
18042;SDS011;9146;48.074;11.968;2023-04-23T06:23:58;13.97;;;9.13;;
18042;SDS011;9146;48.074;11.968;2023-04-23T06:26:25;9.30;;;8.00;;
18042;SDS011;9146;48.074;11.968;2023-04-23T06:28:52;13.50;;;8.40;;
18042;SDS011;9146;48.074;11.968;2023-04-23T06:31:19;9.80;;;7.93;;
18042;SDS011;9146;48.074;11.968;2023-04-23T06:33:48;11.73;;;7.80;;
18042;SDS011;9146;48.074;11.968;2023-04-23T06:36:14;9.87;;;7.50;;
18042;SDS011;9146;48.074;11.968;2023-04-23T06:38:41;10.27;;;7.50;;
18042;SDS011;9146;48.074;11.968;2023-04-23T06:41:09;10.00;;;7.90;;
18042;SDS011;9146;48.074;11.968;2023-04-23T06:43:36;10.17;;;7.93;;
18042;SDS011;9146;48.074;11.968;2023-04-23T06:46:03;9.00;;;8.17;;
18042;SDS011;9146;48.074;11.968;2023-04-23T06:48:30;8.23;;;7.43;;
18042;SDS011;9146;48.074;11.968;2023-04-23T06:50:59;11.17;;;8.03;;
18042;SDS011;9146;48.074;11.968;2023-04-23T06:53:25;10.23;;;7.33;;
18042;SDS011;9146;48.074;11.968;2023-04-23T06:55:53;12.53;;;7.67;;
18042;SDS011;9146;48.074;11.968;2023-04-23T06:58:19;11.03;;;7.63;;
18042;SDS011;9146;48.074;11.968;2023-04-23T07:00:51;9.73;;;6.90;;
18042;SDS011;9146;48.074;11.968;2023-04-23T07:03:18;8.10;;;7.37;;
18042;SDS011;9146;48.074;11.968;2023-04-23T07:05:45;8.30;;;7.50;;
18042;SDS011;9146;48.074;11.968;2023-04-23T07:08:13;8.40;;;7.60;;
18042;SDS011;9146;48.074;11.968;2023-04-23T07:10:40;8.60;;;7.70;;
18042;SDS011;9146;48.074;11.968;2023-04-23T07:13:07;10.57;;;7.63;;
18042;SDS011;9146;48.074;11.968;2023-04-23T07:15:34;12.17;;;8.57;;
18042;SDS011;9146;48.074;11.968;2023-04-23T07:18:02;7.70;;;6.90;;
18042;SDS011;9146;48.074;11.968;2023-04-23T07:20:29;13.93;;;8.50;;
18042;SDS011;9146;48.074;11.968;2023-04-23T07:22:56;10.93;;;7.80;;
18042;SDS011;9146;48.074;11.968;2023-04-23T07:25:27;10.20;;;8.93;;
18042;SDS011;9146;48.074;11.968;2023-04-23T07:27:53;9.50;;;8.33;;
18042;SDS011;9146;48.074;11.968;2023-04-23T07:30:21;11.37;;;8.50;;
18042;SDS011;9146;48.074;11.968;2023-04-23T07:32:48;10.83;;;8.97;;
18042;SDS011;9146;48.074;11.968;2023-04-23T07:35:15;12.03;;;8.80;;
18042;SDS011;9146;48.074;11.968;2023-04-23T07:37:42;12.17;;;8.63;;
18042;SDS011;9146;48.074;11.968;2023-04-23T07:40:09;9.33;;;8.43;;
18042;SDS011;9146;48.074;11.968;2023-04-23T07:42:38;12.70;;;8.10;;
18042;SDS011;9146;48.074;11.968;2023-04-23T07:45:05;10.23;;;8.20;;
18042;SDS011;9146;48.074;11.968;2023-04-23T07:47:32;13.60;;;9.53;;
18042;SDS011;9146;48.074;11.968;2023-04-23T07:49:59;11.27;;;8.33;;
18042;SDS011;9146;48.074;11.968;2023-04-23T07:52:26;12.53;;;8.47;;
18042;SDS011;9146;48.074;11.968;2023-04-23T07:54:53;14.17;;;10.47;;
18042;SDS011;9146;48.074;11.968;2023-04-23T07:57:20;17.77;;;10.13;;
18042;SDS011;9146;48.074;11.968;2023-04-23T07:59:48;13.97;;;9.50;;
18042;SDS011;9146;48.074;11.968;2023-04-23T08:02:15;12.30;;;9.93;;
18042;SDS011;9146;48.074;11.968;2023-04-23T08:04:47;11.73;;;9.47;;
18042;SDS011;9146;48.074;11.968;2023-04-23T08:07:14;11.57;;;9.30;;
18042;SDS011;9146;48.074;11.968;2023-04-23T08:09:41;12.30;;;8.80;;
18042;SDS011;9146;48.074;11.968;2023-04-23T08:12:08;9.67;;;8.67;;
18042;SDS011;9146;48.074;11.968;2023-04-23T08:14:35;11.77;;;7.93;;
18042;SDS011;9146;48.074;11.968;2023-04-23T08:17:04;10.43;;;8.10;;
18042;SDS011;9146;48.074;11.968;2023-04-23T08:19:31;9.00;;;8.10;;
18042;SDS011;9146;48.074;11.968;2023-04-23T08:21:58;8.93;;;8.03;;
18042;SDS011;9146;48.074;11.968;2023-04-23T08:24:25;6.90;;;6.20;;
18042;SDS011;9146;48.074;11.968;2023-04-23T08:26:52;8.67;;;6.13;;
18042;SDS011;9146;48.074;11.968;2023-04-23T08:29:19;7.17;;;6.37;;
18042;SDS011;9146;48.074;11.968;2023-04-23T08:31:46;7.53;;;6.83;;
18042;SDS011;9146;48.074;11.968;2023-04-23T08:34:14;7.23;;;6.53;;
18042;SDS011;9146;48.074;11.968;2023-04-23T08:36:42;6.70;;;6.00;;
18042;SDS011;9146;48.074;11.968;2023-04-23T08:39:10;7.37;;;6.67;;
18042;SDS011;9146;48.074;11.968;2023-04-23T08:41:38;6.90;;;5.47;;
18042;SDS011;9146;48.074;11.968;2023-04-23T08:44:09;6.73;;;5.17;;
18042;SDS011;9146;48.074;11.968;2023-04-23T08:46:40;6.30;;;5.57;;
18042;SDS011;9146;48.074;11.968;2023-04-23T08:49:09;6.40;;;5.00;;
18042;SDS011;9146;48.074;11.968;2023-04-23T08:51:41;7.07;;;5.90;;
18042;SDS011;9146;48.074;11.968;2023-04-23T08:54:14;5.70;;;4.90;;
18042;SDS011;9146;48.074;11.968;2023-04-23T08:56:50;5.07;;;4.63;;
18042;SDS011;9146;48.074;11.968;2023-04-23T08:59:17;5.10;;;4.60;;
18042;SDS011;9146;48.074;11.968;2023-04-23T09:01:47;4.90;;;4.40;;
18042;SDS011;9146;48.074;11.968;2023-04-23T09:04:16;4.77;;;4.37;;
18042;SDS011;9146;48.074;11.968;2023-04-23T09:06:45;8.03;;;3.97;;
18042;SDS011;9146;48.074;11.968;2023-04-23T09:09:13;3.70;;;3.40;;
18042;SDS011;9146;48.074;11.968;2023-04-23T09:11:41;3.60;;;3.30;;
18042;SDS011;9146;48.074;11.968;2023-04-23T09:14:09;3.77;;;3.40;;
18042;SDS011;9146;48.074;11.968;2023-04-23T09:16:37;4.23;;;3.90;;
18042;SDS011;9146;48.074;11.968;2023-04-23T09:19:06;4.20;;;3.90;;
18042;SDS011;9146;48.074;11.968;2023-04-23T09:21:36;3.17;;;2.97;;
18042;SDS011;9146;48.074;11.968;2023-04-23T09:24:07;3.60;;;3.30;;
18042;SDS011;9146;48.074;11.968;2023-04-23T09:26:36;3.97;;;3.27;;
18042;SDS011;9146;48.074;11.968;2023-04-23T09:29:12;3.27;;;2.97;;
18042;SDS011;9146;48.074;11.968;2023-04-23T09:31:42;3.03;;;2.83;;
18042;SDS011;9146;48.074;11.968;2023-04-23T09:34:11;3.43;;;3.20;;
18042;SDS011;9146;48.074;11.968;2023-04-23T09:36:41;3.40;;;3.20;;
18042;SDS011;9146;48.074;11.968;2023-04-23T09:39:13;3.53;;;3.30;;
18042;SDS011;9146;48.074;11.968;2023-04-23T09:41:42;4.47;;;3.67;;
18042;SDS011;9146;48.074;11.968;2023-04-23T09:44:10;4.17;;;3.50;;
18042;SDS011;9146;48.074;11.968;2023-04-23T09:46:38;7.63;;;3.77;;
18042;SDS011;9146;48.074;11.968;2023-04-23T09:49:07;3.30;;;3.10;;
18042;SDS011;9146;48.074;11.968;2023-04-23T09:51:35;3.20;;;3.00;;
18042;SDS011;9146;48.074;11.968;2023-04-23T09:54:03;5.37;;;3.77;;
18042;SDS011;9146;48.074;11.968;2023-04-23T09:56:38;3.00;;;2.80;;
18042;SDS011;9146;48.074;11.968;2023-04-23T09:59:18;4.17;;;3.77;;
18042;SDS011;9146;48.074;11.968;2023-04-23T10:01:45;3.80;;;3.50;;
18042;SDS011;9146;48.074;11.968;2023-04-23T10:04:13;4.07;;;3.23;;
18042;SDS011;9146;48.074;11.968;2023-04-23T10:06:43;3.90;;;3.60;;
18042;SDS011;9146;48.074;11.968;2023-04-23T10:09:10;4.10;;;3.80;;
18042;SDS011;9146;48.074;11.968;2023-04-23T10:11:39;3.43;;;3.13;;
18042;SDS011;9146;48.074;11.968;2023-04-23T10:14:06;3.17;;;2.97;;
18042;SDS011;9146;48.074;11.968;2023-04-23T10:16:34;4.40;;;4.00;;
18042;SDS011;9146;48.074;11.968;2023-04-23T10:19:02;4.13;;;3.83;;
18042;SDS011;9146;48.074;11.968;2023-04-23T10:21:32;4.13;;;3.83;;
18042;SDS011;9146;48.074;11.968;2023-04-23T10:23:59;5.33;;;4.20;;
18042;SDS011;9146;48.074;11.968;2023-04-23T10:26:27;4.63;;;3.47;;
18042;SDS011;9146;48.074;11.968;2023-04-23T10:28:59;6.20;;;3.83;;
18042;SDS011;9146;48.074;11.968;2023-04-23T10:31:27;4.10;;;3.80;;
18042;SDS011;9146;48.074;11.968;2023-04-23T10:33:57;3.63;;;3.33;;
18042;SDS011;9146;48.074;11.968;2023-04-23T10:36:25;4.23;;;3.83;;
18042;SDS011;9146;48.074;11.968;2023-04-23T10:38:53;4.10;;;3.80;;
18042;SDS011;9146;48.074;11.968;2023-04-23T10:41:20;3.60;;;3.27;;
18042;SDS011;9146;48.074;11.968;2023-04-23T10:43:51;3.63;;;3.33;;
18042;SDS011;9146;48.074;11.968;2023-04-23T10:46:27;3.63;;;3.33;;
18042;SDS011;9146;48.074;11.968;2023-04-23T10:49:04;3.77;;;3.40;;
18042;SDS011;9146;48.074;11.968;2023-04-23T10:51:32;3.73;;;3.40;;
18042;SDS011;9146;48.074;11.968;2023-04-23T10:54:01;4.13;;;3.50;;
18042;SDS011;9146;48.074;11.968;2023-04-23T10:56:28;2.90;;;2.70;;
18042;SDS011;9146;48.074;11.968;2023-04-23T10:58:55;3.90;;;3.53;;
18042;SDS011;9146;48.074;11.968;2023-04-23T11:01:23;4.80;;;3.70;;
18042;SDS011;9146;48.074;11.968;2023-04-23T11:03:53;5.60;;;4.20;;
18042;SDS011;9146;48.074;11.968;2023-04-23T11:09:31;3.87;;;3.60;;
18042;SDS011;9146;48.074;11.968;2023-04-23T11:12:03;3.80;;;2.60;;
18042;SDS011;9146;48.074;11.968;2023-04-23T11:14:33;3.37;;;3.07;;
18042;SDS011;9146;48.074;11.968;2023-04-23T11:17:09;3.50;;;3.20;;
18042;SDS011;9146;48.074;11.968;2023-04-23T11:19:39;3.07;;;2.87;;
18042;SDS011;9146;48.074;11.968;2023-04-23T11:22:06;3.20;;;3.00;;
18042;SDS011;9146;48.074;11.968;2023-04-23T11:24:39;3.63;;;3.33;;
18042;SDS011;9146;48.074;11.968;2023-04-23T11:27:08;3.20;;;3.00;;
18042;SDS011;9146;48.074;11.968;2023-04-23T11:29:38;3.57;;;3.17;;
18042;SDS011;9146;48.074;11.968;2023-04-23T11:32:06;3.27;;;2.97;;
18042;SDS011;9146;48.074;11.968;2023-04-23T11:34:34;2.70;;;2.50;;
18042;SDS011;9146;48.074;11.968;2023-04-23T11:37:03;3.17;;;2.87;;
18042;SDS011;9146;48.074;11.968;2023-04-23T11:39:31;4.43;;;2.90;;
18042;SDS011;9146;48.074;11.968;2023-04-23T11:41:58;3.00;;;2.80;;
18042;SDS011;9146;48.074;11.968;2023-04-23T11:44:27;3.23;;;2.93;;
18042;SDS011;9146;48.074;11.968;2023-04-23T11:46:55;4.50;;;3.00;;
18042;SDS011;9146;48.074;11.968;2023-04-23T11:49:26;3.33;;;3.03;;
18042;SDS011;9146;48.074;11.968;2023-04-23T11:51:53;5.60;;;3.17;;
18042;SDS011;9146;48.074;11.968;2023-04-23T11:54:26;2.67;;;2.47;;
18042;SDS011;9146;48.074;11.968;2023-04-23T11:56:53;2.83;;;2.63;;
18042;SDS011;9146;48.074;11.968;2023-04-23T11:59:22;2.50;;;2.40;;
18042;SDS011;9146;48.074;11.968;2023-04-23T12:01:50;2.40;;;2.20;;
18042;SDS011;9146;48.074;11.968;2023-04-23T12:04:19;2.70;;;2.50;;
18042;SDS011;9146;48.074;11.968;2023-04-23T12:06:47;2.47;;;2.27;;
18042;SDS011;9146;48.074;11.968;2023-04-23T12:09:16;2.67;;;2.47;;
18042;SDS011;9146;48.074;11.968;2023-04-23T12:11:47;4.60;;;2.50;;
18042;SDS011;9146;48.074;11.968;2023-04-23T12:14:16;2.30;;;2.10;;
18042;SDS011;9146;48.074;11.968;2023-04-23T12:16:45;4.10;;;2.73;;
18042;SDS011;9146;48.074;11.968;2023-04-23T12:19:17;3.17;;;2.83;;
18042;SDS011;9146;48.074;11.968;2023-04-23T12:21:47;3.00;;;2.80;;
18042;SDS011;9146;48.074;11.968;2023-04-23T12:24:19;5.10;;;2.70;;
18042;SDS011;9146;48.074;11.968;2023-04-23T12:26:49;2.50;;;2.30;;
18042;SDS011;9146;48.074;11.968;2023-04-23T12:29:19;3.40;;;2.43;;
18042;SDS011;9146;48.074;11.968;2023-04-23T12:31:46;3.23;;;2.93;;
18042;SDS011;9146;48.074;11.968;2023-04-23T12:34:13;6.93;;;2.83;;
18042;SDS011;9146;48.074;11.968;2023-04-23T12:36:43;2.50;;;2.30;;
18042;SDS011;9146;48.074;11.968;2023-04-23T12:39:21;2.90;;;2.60;;
18042;SDS011;9146;48.074;11.968;2023-04-23T12:41:51;3.77;;;2.70;;
18042;SDS011;9146;48.074;11.968;2023-04-23T12:44:19;3.40;;;3.10;;
18042;SDS011;9146;48.074;11.968;2023-04-23T12:46:53;3.30;;;3.00;;
18042;SDS011;9146;48.074;11.968;2023-04-23T12:49:20;3.03;;;2.83;;
18042;SDS011;9146;48.074;11.968;2023-04-23T12:51:47;3.07;;;2.37;;
18042;SDS011;9146;48.074;11.968;2023-04-23T12:54:14;2.93;;;2.73;;
18042;SDS011;9146;48.074;11.968;2023-04-23T12:56:41;2.90;;;2.70;;
18042;SDS011;9146;48.074;11.968;2023-04-23T12:59:09;2.83;;;2.63;;
18042;SDS011;9146;48.074;11.968;2023-04-23T13:01:36;3.30;;;2.70;;
18042;SDS011;9146;48.074;11.968;2023-04-23T13:04:03;3.70;;;2.87;;
18042;SDS011;9146;48.074;11.968;2023-04-23T13:06:30;3.27;;;3.03;;
18042;SDS011;9146;48.074;11.968;2023-04-23T13:08:57;2.70;;;2.50;;
18042;SDS011;9146;48.074;11.968;2023-04-23T13:11:27;3.00;;;2.80;;
18042;SDS011;9146;48.074;11.968;2023-04-23T13:13:54;3.40;;;3.10;;
18042;SDS011;9146;48.074;11.968;2023-04-23T13:16:22;3.40;;;3.10;;
18042;SDS011;9146;48.074;11.968;2023-04-23T13:18:49;2.73;;;2.53;;
18042;SDS011;9146;48.074;11.968;2023-04-23T13:21:16;4.10;;;3.13;;
18042;SDS011;9146;48.074;11.968;2023-04-23T13:23:43;2.80;;;2.60;;
18042;SDS011;9146;48.074;11.968;2023-04-23T13:26:10;7.50;;;3.13;;
18042;SDS011;9146;48.074;11.968;2023-04-23T13:28:37;3.90;;;3.37;;
18042;SDS011;9146;48.074;11.968;2023-04-23T13:31:05;4.00;;;3.53;;
18042;SDS011;9146;48.074;11.968;2023-04-23T13:33:34;4.70;;;3.53;;
18042;SDS011;9146;48.074;11.968;2023-04-23T13:36:01;4.17;;;3.53;;
18042;SDS011;9146;48.074;11.968;2023-04-23T13:38:28;6.03;;;3.37;;
18042;SDS011;9146;48.074;11.968;2023-04-23T13:40:55;3.23;;;3.03;;
18042;SDS011;9146;48.074;11.968;2023-04-23T13:43:23;3.73;;;3.27;;
18042;SDS011;9146;48.074;11.968;2023-04-23T13:45:50;3.53;;;3.23;;
18042;SDS011;9146;48.074;11.968;2023-04-23T13:48:19;7.10;;;3.13;;
18042;SDS011;9146;48.074;11.968;2023-04-23T13:50:47;3.93;;;3.37;;
18042;SDS011;9146;48.074;11.968;2023-04-23T13:53:14;5.17;;;3.13;;
18042;SDS011;9146;48.074;11.968;2023-04-23T13:55:41;3.63;;;3.33;;
18042;SDS011;9146;48.074;11.968;2023-04-23T13:58:08;3.27;;;2.80;;
18042;SDS011;9146;48.074;11.968;2023-04-23T14:00:35;3.10;;;2.90;;
18042;SDS011;9146;48.074;11.968;2023-04-23T14:03:01;3.83;;;2.80;;
18042;SDS011;9146;48.074;11.968;2023-04-23T14:05:29;2.97;;;2.77;;
18042;SDS011;9146;48.074;11.968;2023-04-23T14:07:57;2.97;;;2.77;;
18042;SDS011;9146;48.074;11.968;2023-04-23T14:10:24;3.47;;;2.77;;
18042;SDS011;9146;48.074;11.968;2023-04-23T14:12:51;6.83;;;3.10;;
18042;SDS011;9146;48.074;11.968;2023-04-23T14:15:18;6.07;;;3.10;;
18042;SDS011;9146;48.074;11.968;2023-04-23T14:17:45;3.20;;;2.90;;
18042;SDS011;9146;48.074;11.968;2023-04-23T14:20:13;7.70;;;3.17;;
18042;SDS011;9146;48.074;11.968;2023-04-23T14:22:44;2.87;;;2.67;;
18042;SDS011;9146;48.074;11.968;2023-04-23T14:25:22;3.13;;;2.50;;
18042;SDS011;9146;48.074;11.968;2023-04-23T14:27:50;4.13;;;2.60;;
18042;SDS011;9146;48.074;11.968;2023-04-23T14:30:21;3.10;;;2.90;;
18042;SDS011;9146;48.074;11.968;2023-04-23T14:32:53;3.37;;;3.17;;
18042;SDS011;9146;48.074;11.968;2023-04-23T14:35:22;3.27;;;2.97;;
18042;SDS011;9146;48.074;11.968;2023-04-23T14:37:49;4.10;;;2.90;;
18042;SDS011;9146;48.074;11.968;2023-04-23T14:40:18;3.73;;;2.60;;
18042;SDS011;9146;48.074;11.968;2023-04-23T14:42:45;3.20;;;2.90;;
18042;SDS011;9146;48.074;11.968;2023-04-23T14:45:13;3.77;;;3.00;;
18042;SDS011;9146;48.074;11.968;2023-04-23T14:47:44;3.37;;;2.60;;
18042;SDS011;9146;48.074;11.968;2023-04-23T14:50:13;3.13;;;2.93;;
18042;SDS011;9146;48.074;11.968;2023-04-23T14:52:41;4.10;;;3.70;;
18042;SDS011;9146;48.074;11.968;2023-04-23T14:55:12;3.47;;;3.03;;
18042;SDS011;9146;48.074;11.968;2023-04-23T14:57:40;3.00;;;2.80;;